CDT,Max TemperatureF,Mean TemperatureF,Min TemperatureF,Max Dew PointF,MeanDew PointF,Min DewpointF,Max Humidity, Mean Humidity, Min Humidity, Max Sea Level PressureIn, Mean Sea Level PressureIn, Min Sea Level PressureIn, Max VisibilityMiles, Mean VisibilityMiles, Min VisibilityMiles, Max Wind SpeedMPH, Mean Wind SpeedMPH, Max Gust SpeedMPH,PrecipitationIn, CloudCover, Events, WindDirDegrees
2013-5-1,59,48,36,42,36,32,96,78,36,30.48,30.27,29.97,10,8,2,17,9,23,0.50,7,Rain,344
2013-5-2,47,41,35,35,30,26,97,69,45,30.53,30.48,30.41,10,9,1,17,9,23,0.22,5,Rain-Snow,13
2013-5-3,40,38,34,35,31,26,95,80,57,30.40,30.25,30.15,10,7,1,14,9,24,0.13,7,Rain-Snow,15
2013-5-4,54,44,35,42,38,32,97,82,64,30.17,30.13,30.11,10,10,2,13,8,16,0.09,6,Rain,11
2013-5-5,67,54,41,47,41,36,83,67,46,30.17,30.12,30.07,10,10,10,8,5,,0.00,2,,349
2013-5-6,75,61,47,50,45,42,84,55,32,30.11,30.06,30.01,10,10,10,7,2,,0.00,0,,42
2013-5-7,79,65,51,52,45,36,81,50,21,30.07,30.01,29.96,10,10,10,10,2,18,0.00,1,,169
2013-5-8,78,66,55,58,50,43,85,60,29,30.01,29.98,29.94,10,10,5,10,2,17,0.15,4,Rain-Thunderstorm,96
2013-5-9,62,54,47,58,48,28,90,75,46,30.10,30.01,29.95,10,10,4,17,7,24,0.23,7,Rain,13
2013-5-10,67,54,40,39,27,18,68,38,15,30.11,30.03,29.88,10,10,10,9,6,,0.00,1,Rain,353
2013-5-11,57,50,43,44,26,17,65,41,24,30.17,30.06,29.87,10,10,10,25,13,37,0.00,3,Rain,339
2013-5-12,59,48,37,29,20,13,58,35,18,30.22,30.16,30.08,10,10,10,16,7,23,0.00,0,,329
2013-5-13,72,54,37,46,33,24,75,45,22,30.12,29.95,29.66,10,10,10,22,4,28,0.00,1,Rain,159
2013-5-14,98,75,52,50,43,23,80,39,10,29.70,29.60,29.44,10,10,10,20,5,31,0.00,0,,212
2013-5-15,79,68,58,47,44,39,60,40,25,29.92,29.83,29.67,10,10,10,22,11,31,0.00,0,,273
2013-5-16,84,71,59,48,40,28,59,33,18,29.92,29.88,29.83,10,10,10,16,6,24,0.00,1,,68
2013-5-17,69,63,56,56,50,29,94,70,21,30.01,29.97,29.90,10,10,3,12,7,18,0.18,8,Rain,112
2013-5-18,82,69,56,66,59,53,95,76,50,30.02,29.91,29.80,10,8,1,13,5,22,1.15,3,Rain-Thunderstorm,148
2013-5-19,82,73,64,66,64,61,95,79,53,29.81,29.70,29.56,10,9,1,30,6,36,1.14,3,Rain-Thunderstorm,147
2013-5-20,73,66,60,64,60,56,95,78,54,29.58,29.56,29.51,10,10,5,22,7,29,0.35,6,Rain-Thunderstorm,172
2013-5-21,69,62,53,61,57,51,95,86,70,29.71,29.60,29.53,10,9,2,9,3,,0.05,7,Rain,48
2013-5-22,57,52,49,51,48,43,91,84,58,29.97,29.78,29.69,10,9,3,15,8,24,0.08,8,Rain,15
2013-5-23,66,56,47,43,34,27,69,45,25,30.35,30.21,29.98,10,10,10,15,9,22,0.00,0,,29
2013-5-24,69,55,42,52,38,27,81,48,31,30.40,30.32,30.20,10,10,7,12,3,17,0.08,1,Rain-Thunderstorm,155
2013-5-25,63,59,55,53,48,42,88,66,49,30.27,30.25,30.23,10,10,5,16,6,24,0.07,8,Rain,148
2013-5-26,61,58,54,48,42,34,64,55,39,30.23,30.17,30.06,10,10,7,13,6,24,0.00,7,,126
2013-5-27,62,60,57,56,51,46,88,74,60,30.06,29.93,29.85,10,10,3,13,7,21,0.07,8,Rain,100
2013-5-28,61,58,55,57,55,52,94,87,84,29.85,29.76,29.73,10,7,2,8,4,,0.04,8,,100
2013-5-29,75,66,56,70,62,55,94,85,68,29.84,29.75,29.65,10,7,1,12,3,18,0.59,6,Rain-Thunderstorm,139
2013-5-30,79,72,65,66,63,60,95,77,54,29.69,29.60,29.53,10,10,4,18,8,26,0.14,5,Rain-Thunderstorm,164
2013-5-31,80,70,61,63,57,48,91,65,32,29.57,29.55,29.51,10,10,3,25,10,38,0.20,3,Rain-Thunderstorm,174